Time;durP1;ratioP1;P1;durP2;ratioP2;P2;SDS_P1;SDS_P2;PMS_P1;PMS_P2;Temp;Humidity;BMP_temperature;BMP_pressure;BME280_temperature;BME280_humidity;BME280_pressure;Samples;Min_cycle;Max_cycle;Signal;HPM_P1;HPM_P2
2023/04/25 00:00:17;;;;;;;8.27;5.30;;;;;;;11.12;80.12;99297.97;4957850;28;20043;-85
2023/04/25 00:02:44;;;;;;;9.38;5.35;;;;;;;11.19;79.79;99302.53;4957602;28;20398;-85
2023/04/25 00:05:11;;;;;;;10.55;5.53;;;;;;;11.24;79.36;99302.91;4946668;28;20051;-85
2023/04/25 00:07:38;;;;;;;15.05;7.07;;;;;;;11.17;79.74;99301.88;4957455;28;20461;-85
2023/04/25 00:10:06;;;;;;;9.63;5.15;;;;;;;11.19;79.92;99304.34;4927039;28;20043;-86
2023/04/25 00:12:33;;;;;;;11.60;5.78;;;;;;;11.19;79.51;99301.69;4927418;28;20050;-85
2023/04/25 00:15:00;;;;;;;10.18;5.78;;;;;;;11.15;79.79;99305.66;4933042;28;20055;-85
2023/04/25 00:17:27;;;;;;;12.20;5.53;;;;;;;11.22;79.37;99304.03;4926941;28;20047;-86
2023/04/25 00:19:54;;;;;;;11.10;4.93;;;;;;;11.18;79.14;99294.72;4933364;28;20055;-86
2023/04/25 00:22:20;;;;;;;12.07;5.40;;;;;;;11.17;79.39;99303.66;4959660;28;20054;-85
2023/04/25 00:24:47;;;;;;;12.32;5.40;;;;;;;11.16;78.95;99292.19;4947331;28;20043;-84
2023/04/25 00:27:14;;;;;;;8.75;5.05;;;;;;;11.17;79.31;99298.34;4960579;28;20073;-85
2023/04/25 00:29:41;;;;;;;11.80;5.97;;;;;;;11.18;78.90;99295.53;4954003;28;20162;-85
2023/04/25 00:32:08;;;;;;;12.95;5.63;;;;;;;11.08;79.08;99298.28;4947629;28;20647;-85
2023/04/25 00:34:35;;;;;;;11.45;5.95;;;;;;;11.04;78.65;99293.41;4963819;28;20043;-86
2023/04/25 00:37:02;;;;;;;11.30;5.18;;;;;;;11.03;78.80;99292.59;4965410;28;20129;-86
2023/04/25 00:39:29;;;;;;;12.18;5.75;;;;;;;11.03;78.90;99292.59;4974693;28;20513;-85
2023/04/25 00:41:56;;;;;;;11.40;5.55;;;;;;;10.99;78.63;99288.59;4926706;28;20049;-86
2023/04/25 00:44:24;;;;;;;15.43;6.38;;;;;;;11.02;78.88;99296.25;4944719;28;20206;-86
2023/04/25 00:46:51;;;;;;;11.13;5.65;;;;;;;10.99;78.69;99293.91;4917332;28;20101;-85
2023/04/25 00:49:18;;;;;;;12.85;6.22;;;;;;;10.95;79.31;99287.19;4933929;28;20062;-86
2023/04/25 00:51:45;;;;;;;17.65;5.55;;;;;;;10.93;79.30;99286.50;4933674;28;20126;-86
2023/04/25 00:54:12;;;;;;;10.00;5.22;;;;;;;10.95;79.01;99295.16;4914500;28;20043;-85
2023/04/25 00:56:39;;;;;;;12.90;5.53;;;;;;;10.93;79.09;99288.34;4931460;28;20058;-85
2023/04/25 00:59:06;;;;;;;11.50;5.10;;;;;;;10.90;79.06;99284.16;4947057;28;20061;-84
2023/04/25 01:01:33;;;;;;;11.07;5.40;;;;;;;10.89;79.76;99284.31;4934308;28;20045;-85
2023/04/25 01:04:00;;;;;;;12.13;6.10;;;;;;;10.92;79.64;99286.69;4933200;28;20118;-85
2023/04/25 01:06:28;;;;;;;10.82;6.45;;;;;;;10.92;79.17;99287.50;4960946;28;20079;-85
2023/04/25 01:08:55;;;;;;;15.25;6.60;;;;;;;10.95;79.50;99289.03;4948354;28;20043;-85
2023/04/25 01:11:21;;;;;;;15.25;6.30;;;;;;;10.90;79.80;99288.66;4964537;28;20101;-85
2023/04/25 01:13:49;;;;;;;11.18;6.07;;;;;;;10.92;79.96;99290.16;4937746;28;20062;-85
2023/04/25 01:16:16;;;;;;;16.02;6.65;;;;;;;10.90;79.36;99286.81;4947921;28;20053;-85
2023/04/25 01:18:46;;;;;;;11.43;6.30;;;;;;;10.89;79.47;99284.31;4939721;28;20490;-86
2023/04/25 01:21:13;;;;;;;12.25;6.72;;;;;;;10.90;79.79;99292.13;4955225;28;20067;-86
2023/04/25 01:23:41;;;;;;;12.02;6.13;;;;;;;10.91;79.87;99291.13;4928034;28;20134;-86
2023/04/25 01:26:11;;;;;;;11.65;6.25;;;;;;;10.82;80.06;99286.75;4925360;28;20043;-85
2023/04/25 01:28:41;;;;;;;14.55;6.57;;;;;;;10.83;79.87;99281.28;4948266;28;20055;-85
2023/04/25 01:31:09;;;;;;;11.65;6.13;;;;;;;10.82;80.04;99284.91;4945554;28;20050;-85
2023/04/25 01:33:36;;;;;;;11.43;6.03;;;;;;;10.72;80.56;99281.50;4927057;28;20126;-85
2023/04/25 01:36:03;;;;;;;11.25;5.85;;;;;;;10.78;79.37;99277.41;4941487;28;20051;-85
2023/04/25 01:38:30;;;;;;;12.82;5.38;;;;;;;10.69;79.95;99284.47;4926283;28;20055;-85
2023/04/25 01:40:57;;;;;;;14.68;7.85;;;;;;;10.73;79.43;99282.31;4921794;28;20051;-85
2023/04/25 01:43:24;;;;;;;13.82;7.15;;;;;;;10.69;79.62;99279.16;4930227;28;20118;-85
2023/04/25 01:45:51;;;;;;;11.30;6.35;;;;;;;10.71;79.36;99281.63;4925371;28;20043;-85
2023/04/25 01:48:19;;;;;;;10.55;6.63;;;;;;;10.68;79.47;99288.09;4924165;28;20537;-86
2023/04/25 01:50:46;;;;;;;12.10;6.35;;;;;;;10.59;80.04;99281.88;4963750;28;20045;-85
2023/04/25 01:53:14;;;;;;;15.05;5.85;;;;;;;10.59;79.75;99276.56;4935652;28;20058;-85
2023/04/25 01:55:43;;;;;;;14.23;6.30;;;;;;;10.62;79.80;99265.63;4946250;28;20082;-85
2023/04/25 01:58:13;;;;;;;12.98;6.30;;;;;;;10.64;80.31;99270.81;4930146;28;20070;-86
2023/04/25 02:01:00;;;;;;;12.93;5.80;;;;;;;10.59;80.14;99271.25;4901021;28;20055;-85
2023/04/25 02:03:34;;;;;;;14.82;5.97;;;;;;;10.61;80.27;99274.59;4935486;28;20059;-85
2023/04/25 02:06:04;;;;;;;12.85;6.43;;;;;;;10.64;79.80;99279.59;4925324;28;20486;-85
2023/04/25 02:08:33;;;;;;;15.35;7.78;;;;;;;10.58;80.54;99276.69;4931453;28;20055;-87
2023/04/25 02:11:00;;;;;;;13.43;7.72;;;;;;;10.56;80.67;99271.53;4940849;28;20046;-85
2023/04/25 02:13:34;;;;;;;14.90;6.78;;;;;;;10.64;80.06;99276.94;4950183;28;20542;-89
2023/04/25 02:16:15;;;;;;;15.27;8.43;;;;;;;10.69;79.70;99273.84;4951927;28;20058;-86
2023/04/25 02:18:42;;;;;;;14.68;6.63;;;;;;;10.71;79.88;99277.19;4943158;28;20039;-85
2023/04/25 02:21:09;;;;;;;17.52;7.22;;;;;;;10.70;79.80;99272.84;4944982;28;20061;-85
2023/04/25 02:23:36;;;;;;;15.05;7.00;;;;;;;10.73;79.64;99277.84;4962246;28;20074;-85
2023/04/25 02:26:02;;;;;;;13.25;6.28;;;;;;;10.73;79.51;99277.84;4932824;28;20063;-85
2023/04/25 02:28:30;;;;;;;12.40;5.93;;;;;;;10.73;79.40;99274.38;4928420;28;20501;-85
2023/04/25 02:30:57;;;;;;;16.45;6.75;;;;;;;10.78;79.39;99267.59;4962306;28;20475;-85
2023/04/25 02:33:24;;;;;;;10.57;6.10;;;;;;;10.79;79.15;99268.47;4931507;28;20536;-85
2023/04/25 02:35:51;;;;;;;10.95;6.20;;;;;;;10.75;79.03;99273.22;4940916;28;20396;-85
2023/04/25 02:38:21;;;;;;;13.50;7.60;;;;;;;10.68;78.90;99276.63;4939499;28;20062;-86
2023/04/25 02:40:48;;;;;;;14.57;7.35;;;;;;;10.65;79.05;99272.47;4932430;28;20050;-85
2023/04/25 02:43:15;;;;;;;14.55;6.88;;;;;;;10.78;78.54;99274.75;4942805;28;20042;-85
2023/04/25 02:45:42;;;;;;;13.60;6.88;;;;;;;10.82;78.49;99271.63;4928752;28;20047;-85
2023/04/25 02:48:09;;;;;;;18.65;7.15;;;;;;;10.77;78.84;99273.09;4931717;28;20118;-85
2023/04/25 02:50:36;;;;;;;11.80;6.53;;;;;;;10.78;79.00;99258.81;4939706;28;20082;-84
2023/04/25 02:53:03;;;;;;;15.60;7.50;;;;;;;10.75;79.17;99262.59;4954603;28;20494;-85
2023/04/25 02:55:36;;;;;;;;;;;;;;;10.49;80.60;99259.84;4929256;28;20046;-86
2023/04/25 02:58:04;;;;;;;13.45;6.90;;;;;;;10.61;80.00;99258.66;4929314;28;20358;-86
2023/04/25 03:00:39;;;;;;;16.25;6.35;;;;;;;10.60;80.94;99256.16;4946209;28;20049;-85
2023/04/25 03:03:06;;;;;;;13.55;6.57;;;;;;;10.63;80.79;99266.47;4963872;28;20046;-86
2023/04/25 03:05:33;;;;;;;17.00;8.35;;;;;;;10.59;80.95;99257.97;4950310;28;20055;-85
2023/04/25 03:08:00;;;;;;;15.32;7.28;;;;;;;10.56;81.27;99260.94;4941714;28;20054;-85
2023/04/25 03:10:27;;;;;;;14.38;7.20;;;;;;;10.62;81.37;99255.00;4911350;28;20077;-85
2023/04/25 03:12:57;;;;;;;18.15;7.47;;;;;;;10.64;80.99;99253.03;4935412;28;20042;-85
2023/04/25 03:15:24;;;;;;;14.50;7.35;;;;;;;10.73;80.50;99258.44;4943239;28;20058;-85
2023/04/25 03:17:52;;;;;;;19.17;7.55;;;;;;;10.67;80.95;99259.88;4938868;28;20041;-85
2023/04/25 03:20:18;;;;;;;15.95;8.20;;;;;;;10.64;80.61;99253.03;4963066;28;20043;-86
2023/04/25 03:22:46;;;;;;;16.88;7.85;;;;;;;10.70;80.18;99259.56;4927722;28;20051;-86
2023/04/25 03:25:13;;;;;;;16.05;8.48;;;;;;;10.72;80.08;99259.44;4934923;28;20130;-85
2023/04/25 03:27:40;;;;;;;18.15;7.88;;;;;;;10.63;80.67;99258.50;4949626;28;20043;-85
2023/04/25 03:30:07;;;;;;;16.98;8.77;;;;;;;10.61;81.24;99249.88;4942690;28;20050;-86
2023/04/25 03:32:36;;;;;;;17.20;8.73;;;;;;;10.71;80.05;99255.09;4939910;28;20565;-86
2023/04/25 03:35:03;;;;;;;18.90;7.90;;;;;;;10.63;80.84;99254.03;4947493;28;20491;-85
2023/04/25 03:37:31;;;;;;;21.48;9.00;;;;;;;10.65;81.14;99254.69;4935965;28;20504;-86
2023/04/25 03:39:58;;;;;;;20.02;9.23;;;;;;;10.67;80.44;99257.22;4934604;28;20119;-86
2023/04/25 03:42:34;;;;;;;21.23;9.45;;;;;;;10.68;79.94;99253.56;4944199;28;20054;-87
2023/04/25 03:45:01;;;;;;;18.85;9.10;;;;;;;10.75;79.45;99253.81;4935077;28;20511;-85
2023/04/25 03:47:29;;;;;;;18.42;7.90;;;;;;;10.69;80.17;99251.78;4962826;28;20047;-87
2023/04/25 03:49:57;;;;;;;20.70;8.30;;;;;;;10.70;80.29;99253.44;4946558;28;20073;-86
2023/04/25 03:52:23;;;;;;;21.00;8.93;;;;;;;10.69;79.87;99257.06;4948290;28;20039;-86
2023/04/25 03:54:50;;;;;;;20.85;9.85;;;;;;;10.65;79.87;99253.88;4911863;28;20047;-86
2023/04/25 03:57:19;;;;;;;22.15;9.68;;;;;;;10.58;80.47;99260.75;4953402;28;20069;-86
2023/04/25 03:59:46;;;;;;;19.00;9.90;;;;;;;10.55;80.54;99259.25;4928744;28;20050;-87
2023/04/25 04:02:14;;;;;;;22.75;10.00;;;;;;;10.52;80.59;99251.59;4921497;28;20047;-86
2023/04/25 04:04:43;;;;;;;19.83;10.18;;;;;;;10.52;80.85;99259.53;4946878;28;20132;-86
2023/04/25 04:07:11;;;;;;;25.42;10.30;;;;;;;10.53;80.65;99257.72;4941945;28;20126;-86
2023/04/25 04:09:40;;;;;;;22.35;11.43;;;;;;;10.52;81.01;99259.53;4958939;28;20043;-87
2023/04/25 04:12:12;;;;;;;19.80;10.18;;;;;;;10.50;80.62;99258.84;4943485;28;20046;-86
2023/04/25 04:14:40;;;;;;;22.30;10.15;;;;;;;10.46;81.55;99264.59;4946218;28;20498;-87
2023/04/25 04:17:07;;;;;;;19.65;9.63;;;;;;;10.49;81.43;99264.34;4945392;28;20043;-87
2023/04/25 04:19:34;;;;;;;25.40;10.07;;;;;;;10.49;80.39;99261.69;4943750;28;20047;-86
2023/04/25 04:22:09;;;;;;;21.13;10.23;;;;;;;10.44;80.96;99267.44;4910835;28;20078;-86
2023/04/25 04:24:38;;;;;;;21.35;10.18;;;;;;;10.42;81.86;99264.09;4961326;28;20592;-87
2023/04/25 04:27:06;;;;;;;25.45;10.50;;;;;;;10.46;81.49;99270.78;4943524;28;20495;-87
2023/04/25 04:29:44;;;;;;;23.42;10.95;;;;;;;10.46;81.61;99267.25;4945062;28;20049;-87
2023/04/25 04:32:18;;;;;;;21.70;10.57;;;;;;;10.48;80.97;99276.78;4942672;28;20061;-85
2023/04/25 04:34:47;;;;;;;25.00;12.05;;;;;;;10.46;81.06;99265.47;4930225;28;20051;-86
2023/04/25 04:37:15;;;;;;;23.92;10.23;;;;;;;10.54;80.95;99278.81;4911590;28;20047;-87
2023/04/25 04:39:42;;;;;;;23.33;10.43;;;;;;;10.50;81.14;99274.78;4951411;28;20053;-86
2023/04/25 04:42:24;;;;;;;25.08;11.73;;;;;;;10.50;81.30;99279.25;4944322;28;20134;-85
2023/04/25 04:45:12;;;;;;;25.40;11.95;;;;;;;10.49;81.09;99277.59;4928129;28;20604;-84
2023/04/25 04:48:08;;;;;;;21.63;10.77;;;;;;;10.39;81.67;99275.81;4924202;28;20043;-86
2023/04/25 04:51:00;;;;;;;23.35;11.00;;;;;;;10.40;80.95;99279.31;4948147;28;20055;-85
2023/04/25 04:53:45;;;;;;;23.45;10.80;;;;;;;10.45;80.56;99287.66;4929366;28;20044;-85
2023/04/25 04:56:23;;;;;;;25.83;11.52;;;;;;;10.41;81.04;99288.97;4927884;28;20117;-85
2023/04/25 04:59:08;;;;;;;27.63;10.73;;;;;;;10.39;81.61;99297.06;4945360;28;20051;-85
2023/04/25 05:01:54;;;;;;;23.02;10.75;;;;;;;10.43;81.31;99293.13;4955380;28;20051;-85
2023/04/25 05:04:34;;;;;;;28.50;11.40;;;;;;;10.47;81.35;99303.44;4928314;28;20059;-85
2023/04/25 05:07:21;;;;;;;24.52;11.13;;;;;;;10.47;80.97;99306.94;4917220;28;20053;-85
2023/04/25 05:10:11;;;;;;;22.42;11.18;;;;;;;10.43;81.78;99309.06;4942321;28;20134;-85
2023/04/25 05:12:55;;;;;;;26.38;12.68;;;;;;;10.38;82.25;99303.38;4947952;28;20621;-85
2023/04/25 05:15:22;;;;;;;27.88;12.05;;;;;;;10.41;81.78;99311.03;4952991;28;20047;-85
2023/04/25 05:17:51;;;;;;;28.88;12.63;;;;;;;10.47;81.41;99306.94;4939740;28;20051;-85
2023/04/25 05:20:24;;;;;;;;;;;;;;;10.29;82.34;99308.72;4940489;28;20672;-85
2023/04/25 05:23:00;;;;;;;28.20;12.77;;;;;;;10.45;81.09;99319.50;4956586;28;19991;-85
2023/04/25 05:25:42;;;;;;;30.60;12.13;;;;;;;10.51;80.56;99310.97;4946097;28;20047;-86
2023/04/25 05:28:15;;;;;;;30.58;12.30;;;;;;;10.50;81.03;99319.91;4955765;28;20057;-86
2023/04/25 05:30:56;;;;;;;26.90;11.55;;;;;;;10.46;81.54;99320.34;4916313;28;20490;-85
2023/04/25 05:33:29;;;;;;;30.50;12.85;;;;;;;10.40;82.14;99314.66;4939978;28;20051;-84
2023/04/25 05:35:56;;;;;;;27.10;12.00;;;;;;;10.37;82.11;99317.59;4928247;28;20081;-85
2023/04/25 05:38:24;;;;;;;30.00;14.48;;;;;;;10.42;81.48;99319.81;4935008;28;20047;-85
2023/04/25 05:41:10;;;;;;;29.38;13.98;;;;;;;10.43;80.95;99317.03;4944874;28;20058;-86
2023/04/25 05:44:03;;;;;;;34.22;13.07;;;;;;;10.39;81.52;99320.13;4904576;28;20042;-85
2023/04/25 05:46:36;;;;;;;29.17;12.32;;;;;;;10.33;81.69;99321.53;4925713;28;20561;-85
2023/04/25 05:49:14;;;;;;;28.75;12.27;;;;;;;10.38;82.33;99323.75;4946259;28;20047;-85
2023/04/25 05:52:04;;;;;;;29.67;13.48;;;;;;;10.37;82.64;99325.56;4915636;28;20051;-85
2023/04/25 05:54:50;;;;;;;29.10;12.85;;;;;;;10.35;83.40;99332.00;4927095;28;20133;-85
2023/04/25 05:57:24;;;;;;;26.92;12.00;;;;;;;10.38;83.03;99318.44;4943561;28;20134;-86
2023/04/25 05:59:53;;;;;;;27.13;10.50;;;;;;;10.51;82.56;99326.91;4947794;28;20447;-85
2023/04/25 06:02:22;;;;;;;27.45;12.30;;;;;;;10.53;82.98;99330.25;4925442;28;20059;-86
2023/04/25 06:04:50;;;;;;;30.38;12.32;;;;;;;10.54;82.53;99331.09;4925318;28;20646;-85
2023/04/25 06:07:21;;;;;;;26.60;10.82;;;;;;;10.55;82.53;99327.44;4927384;28;20047;-84
2023/04/25 06:09:47;;;;;;;26.73;11.57;;;;;;;10.51;82.77;99334.88;4954345;28;20051;-85
2023/04/25 06:12:14;;;;;;;27.30;11.38;;;;;;;10.52;81.84;99325.91;4938511;28;20105;-86
2023/04/25 06:14:41;;;;;;;28.08;12.38;;;;;;;10.59;82.25;99327.00;4942319;28;20046;-86
2023/04/25 06:17:08;;;;;;;26.95;11.63;;;;;;;10.61;82.06;99327.69;4939341;28;20047;-86
2023/04/25 06:19:36;;;;;;;24.50;12.48;;;;;;;10.62;80.28;99328.53;4941112;28;20046;-86
2023/04/25 06:22:02;;;;;;;25.23;11.02;;;;;;;10.68;80.15;99330.56;4941872;28;20658;-86
2023/04/25 06:24:31;;;;;;;32.47;13.20;;;;;;;10.76;80.35;99329.81;4944714;28;20465;-85
2023/04/25 06:26:57;;;;;;;27.90;13.55;;;;;;;10.68;79.87;99333.22;4940568;28;20050;-86
2023/04/25 06:29:24;;;;;;;31.65;13.05;;;;;;;10.70;80.08;99341.06;4940396;28;20487;-86
2023/04/25 06:31:52;;;;;;;33.60;13.80;;;;;;;10.75;80.16;99336.13;4945047;28;20063;-85
2023/04/25 06:34:20;;;;;;;28.13;13.20;;;;;;;10.72;79.74;99339.91;4942224;28;20722;-86
2023/04/25 06:36:47;;;;;;;30.10;13.43;;;;;;;10.78;79.10;99338.47;4941060;28;20062;-85
2023/04/25 06:39:15;;;;;;;30.85;12.95;;;;;;;10.77;78.91;99331.50;4944206;28;20069;-85
2023/04/25 06:41:42;;;;;;;32.85;12.95;;;;;;;10.75;78.69;99328.16;4956608;28;20586;-85
2023/04/25 06:44:29;;;;;;;30.88;12.57;;;;;;;10.74;78.24;99332.66;4929097;28;20047;-86
2023/04/25 06:46:57;;;;;;;30.65;13.05;;;;;;;10.75;78.79;99330.81;4946384;28;20138;-85
2023/04/25 06:49:24;;;;;;;28.50;10.82;;;;;;;10.77;78.59;99334.16;4928108;28;20402;-87
2023/04/25 06:51:50;;;;;;;31.00;12.27;;;;;;;10.79;77.98;99337.50;4940324;28;20050;-85
2023/04/25 06:54:17;;;;;;;25.60;11.88;;;;;;;10.82;77.46;99322.09;4938906;28;20078;-85
2023/04/25 06:56:55;;;;;;;28.70;13.40;;;;;;;10.90;76.92;99336.47;4937411;28;20066;-84
2023/04/25 06:59:22;;;;;;;28.15;11.93;;;;;;;10.86;77.94;99335.91;4953966;28;20106;-85
2023/04/25 07:01:50;;;;;;;28.00;11.73;;;;;;;10.80;77.29;99332.03;4958233;28;20058;-86
2023/04/25 07:04:20;;;;;;;30.15;12.05;;;;;;;10.78;77.34;99341.13;4940080;28;20065;-86
2023/04/25 07:06:50;;;;;;;28.92;12.35;;;;;;;10.90;77.54;99336.47;4940204;28;20140;-85
2023/04/25 07:09:22;;;;;;;30.02;13.30;;;;;;;10.90;77.64;99339.13;4943007;28;20049;-86
2023/04/25 07:11:50;;;;;;;28.20;12.15;;;;;;;10.89;77.23;99343.59;4929492;28;20051;-86
2023/04/25 07:14:17;;;;;;;28.42;12.00;;;;;;;10.92;76.81;99340.63;4943211;28;20055;-84
2023/04/25 07:16:44;;;;;;;27.27;11.70;;;;;;;11.01;77.31;99344.19;4940483;28;20049;-85
2023/04/25 07:19:12;;;;;;;29.85;12.68;;;;;;;11.03;77.96;99345.72;4928963;28;20043;-85
2023/04/25 07:21:39;;;;;;;27.63;12.57;;;;;;;11.01;77.08;99352.16;4957647;28;20458;-85
2023/04/25 07:24:06;;;;;;;29.17;12.40;;;;;;;11.13;76.45;99350.16;4936412;28;20047;-85
2023/04/25 07:26:37;;;;;;;34.97;14.25;;;;;;;11.15;76.44;99348.19;4951705;28;20051;-85
2023/04/25 07:29:16;;;;;;;31.23;13.18;;;;;;;11.22;75.52;99358.06;4942922;28;20039;-85
2023/04/25 07:31:43;;;;;;;27.00;12.50;;;;;;;11.13;76.50;99358.13;4942507;28;20125;-85
2023/04/25 07:34:10;;;;;;;30.38;12.40;;;;;;;11.17;75.41;99356.81;4938632;28;20063;-84
2023/04/25 07:36:38;;;;;;;30.38;12.48;;;;;;;11.23;75.20;99356.22;4938847;28;20075;-84
2023/04/25 07:39:05;;;;;;;27.85;12.38;;;;;;;11.19;75.03;99355.66;4959535;28;20469;-85
2023/04/25 07:41:32;;;;;;;33.35;13.70;;;;;;;11.17;74.49;99362.13;4941557;28;20903;-84
2023/04/25 07:43:59;;;;;;;31.67;12.43;;;;;;;11.16;74.88;99360.47;4941985;28;20157;-84
2023/04/25 07:46:26;;;;;;;31.08;14.27;;;;;;;11.15;75.08;99366.78;4925873;28;20502;-86
2023/04/25 07:48:53;;;;;;;31.42;11.93;;;;;;;11.10;73.63;99364.56;4945507;28;20074;-85
2023/04/25 07:51:22;;;;;;;29.02;12.73;;;;;;;10.98;73.40;99371.91;4955488;28;20089;-85
2023/04/25 07:53:51;;;;;;;25.85;12.20;;;;;;;11.07;73.28;99359.56;4956563;28;20163;-84
2023/04/25 07:56:19;;;;;;;26.95;11.88;;;;;;;11.05;74.28;99362.34;4943479;28;20495;-84
2023/04/25 07:58:47;;;;;;;24.35;12.00;;;;;;;11.11;73.69;99366.22;4944949;28;20105;-86
2023/04/25 08:01:16;;;;;;;28.13;13.32;;;;;;;11.12;74.09;99372.38;4958450;28;20459;-85
2023/04/25 08:03:56;;;;;;;34.83;13.20;;;;;;;11.08;73.80;99371.84;4943272;28;20043;-85
2023/04/25 08:06:38;;;;;;;33.33;13.35;;;;;;;11.05;74.80;99396.91;4958649;28;20043;-86
2023/04/25 08:09:13;;;;;;;19.10;8.75;;;;;;;10.83;70.79;99397.31;4943943;28;20054;-85
2023/04/25 08:11:41;;;;;;;28.63;8.10;;;;;;;10.59;68.38;99397.84;4941820;28;20047;-86
2023/04/25 08:14:11;;;;;;;24.85;7.55;;;;;;;10.47;67.58;99404.31;4929970;28;20063;-85
2023/04/25 08:16:40;;;;;;;22.48;7.72;;;;;;;10.37;68.04;99407.00;4944736;28;20055;-85
2023/04/25 08:19:06;;;;;;;19.88;7.75;;;;;;;10.55;68.38;99409.72;4929347;28;20047;-86
2023/04/25 08:21:34;;;;;;;21.83;7.97;;;;;;;10.62;68.68;99410.81;4944913;28;20047;-85
2023/04/25 08:24:05;;;;;;;22.55;9.50;;;;;;;10.58;69.27;99412.94;4925473;28;20059;-85
2023/04/25 08:26:37;;;;;;;16.08;7.82;;;;;;;10.69;69.28;99417.22;4932114;28;20078;-85
2023/04/25 08:29:05;;;;;;;20.23;8.38;;;;;;;10.65;69.77;99424.63;4946637;28;20873;-85
2023/04/25 08:31:32;;;;;;;18.65;8.40;;;;;;;10.65;69.65;99419.31;4960555;28;20057;-86
2023/04/25 08:34:02;;;;;;;18.77;9.00;;;;;;;10.77;69.96;99419.97;4942268;28;20051;-86
2023/04/25 08:36:41;;;;;;;15.70;7.45;;;;;;;10.91;69.63;99417.81;4947237;28;20057;-86
2023/04/25 08:39:48;;;;;;;21.33;8.93;;;;;;;10.78;70.83;99419.00;4940464;28;20079;-86
2023/04/25 08:42:21;;;;;;;20.08;8.48;;;;;;;10.91;69.46;99421.28;4956896;28;20066;-86
2023/04/25 08:44:49;;;;;;;22.33;8.23;;;;;;;10.95;67.25;99416.53;4913128;28;20058;-85
2023/04/25 08:47:18;;;;;;;18.60;7.72;;;;;;;10.80;67.90;99421.50;4914792;28;20123;-85
2023/04/25 08:49:49;;;;;;;19.63;7.90;;;;;;;10.83;67.69;99423.84;4953453;28;20509;-86
2023/04/25 08:52:21;;;;;;;21.60;7.85;;;;;;;10.95;66.47;99433.31;4956088;28;20113;-85
2023/04/25 08:54:49;;;;;;;24.20;9.35;;;;;;;10.88;67.05;99437.53;4953749;28;20418;-85
2023/04/25 08:57:17;;;;;;;22.13;8.32;;;;;;;10.94;67.79;99441.41;4942002;28;20046;-87
2023/04/25 08:59:45;;;;;;;20.20;8.88;;;;;;;10.90;66.68;99438.22;4947292;28;20050;-86
2023/04/25 09:02:17;;;;;;;20.48;7.68;;;;;;;10.93;66.75;99437.94;4925559;28;20054;-85
2023/04/25 09:04:48;;;;;;;15.48;8.00;;;;;;;10.94;67.55;99450.25;4925000;28;20053;-84
2023/04/25 09:07:18;;;;;;;18.63;7.78;;;;;;;11.03;68.20;99454.66;4930655;28;20410;-85
2023/04/25 09:09:45;;;;;;;23.27;8.40;;;;;;;11.02;67.57;99455.66;4938325;28;20043;-85
2023/04/25 09:12:14;;;;;;;20.98;8.32;;;;;;;11.08;67.34;99456.88;4945752;28;20478;-85
2023/04/25 09:14:42;;;;;;;17.38;7.55;;;;;;;11.04;67.05;99461.66;4939830;28;20046;-85
2023/04/25 09:17:32;;;;;;;18.98;7.45;;;;;;;11.05;66.90;99465.97;4955905;28;20047;-86
2023/04/25 09:20:11;;;;;;;19.70;7.85;;;;;;;11.11;66.13;99469.03;4927511;28;20071;-87
2023/04/25 09:22:42;;;;;;;13.45;7.07;;;;;;;11.06;65.54;99472.94;4958965;28;20043;-87
2023/04/25 09:25:16;;;;;;;19.77;7.72;;;;;;;11.05;66.27;99468.63;4948905;28;20078;-86
2023/04/25 09:27:54;;;;;;;20.40;7.70;;;;;;;11.05;67.41;99468.63;4964578;28;20137;-86
2023/04/25 09:30:30;;;;;;;16.83;6.75;;;;;;;11.11;66.64;99472.50;4950762;28;20135;-85
2023/04/25 09:33:34;;;;;;;16.48;6.90;;;;;;;11.15;65.23;99473.91;4936561;28;20097;-87
2023/04/25 09:36:08;;;;;;;14.55;6.82;;;;;;;11.13;64.74;99478.53;4942757;28;20058;-85
2023/04/25 09:39:00;;;;;;;19.67;6.63;;;;;;;11.23;65.74;99481.97;4968407;28;20134;-86
2023/04/25 09:41:31;;;;;;;12.52;6.35;;;;;;;11.28;65.87;99481.53;4941180;28;20046;-86
2023/04/25 09:44:00;;;;;;;12.60;5.97;;;;;;;11.33;65.84;99484.56;4932969;28;20053;-85
2023/04/25 09:46:38;;;;;;;21.08;7.25;;;;;;;11.20;63.84;99498.22;4947212;28;20133;-85
2023/04/25 09:49:10;;;;;;;14.60;5.50;;;;;;;11.21;63.73;99499.88;4960365;28;20046;-86
2023/04/25 09:51:56;;;;;;;16.48;5.40;;;;;;;11.22;61.73;99496.25;4931549;28;20047;-86
2023/04/25 09:54:25;;;;;;;15.43;6.70;;;;;;;11.25;63.44;99500.44;4929973;28;20121;-85
2023/04/25 09:57:30;;;;;;;14.48;6.07;;;;;;;11.16;60.77;99494.16;4942145;28;20446;-86
2023/04/25 10:00:00;;;;;;;10.35;5.38;;;;;;;11.21;63.35;99499.03;4924613;28;20050;-87
2023/04/25 10:02:42;;;;;;;13.93;5.20;;;;;;;11.33;63.59;99502.34;4939789;28;20582;-86
2023/04/25 10:05:15;;;;;;;19.55;5.97;;;;;;;11.35;63.37;99495.03;4949396;28;20483;-87
2023/04/25 10:07:42;;;;;;;13.32;4.32;;;;;;;11.43;61.73;99493.31;4929599;28;20062;-87
2023/04/25 10:10:14;;;;;;;9.20;4.68;;;;;;;11.47;62.62;99501.81;4943508;28;20047;-87
2023/04/25 10:12:43;;;;;;;15.80;4.97;;;;;;;11.49;62.55;99497.19;4936900;28;20047;-86
2023/04/25 10:15:10;;;;;;;24.48;5.15;;;;;;;11.48;62.32;99500.84;4939747;28;20047;-85
2023/04/25 10:17:38;;;;;;;12.50;5.10;;;;;;;11.50;62.88;99504.22;4941497;28;20098;-86
2023/04/25 10:20:10;;;;;;;9.88;4.75;;;;;;;11.46;62.49;99513.47;4941517;28;20101;-85
2023/04/25 10:22:44;;;;;;;17.67;4.65;;;;;;;11.28;59.62;99510.75;4924903;28;20047;-86
2023/04/25 10:25:11;;;;;;;12.57;5.03;;;;;;;11.47;62.36;99515.97;4960393;28;20105;-86
2023/04/25 10:27:39;;;;;;;12.13;4.47;;;;;;;11.48;61.86;99507.00;4931578;28;20562;-86
2023/04/25 10:30:24;;;;;;;13.35;4.38;;;;;;;11.57;61.49;99510.56;4942073;28;20116;-86
2023/04/25 10:32:54;;;;;;;6.80;4.07;;;;;;;11.74;62.57;99490.31;4944053;28;20726;-86
2023/04/25 10:35:28;;;;;;;11.00;4.20;;;;;;;11.66;59.58;99496.38;4943893;28;20042;-86
2023/04/25 10:38:12;;;;;;;11.70;5.15;;;;;;;11.75;61.69;99497.28;4957019;28;20094;-86
2023/04/25 10:40:39;;;;;;;13.02;4.60;;;;;;;11.78;59.36;99504.13;4964482;28;20066;-85
2023/04/25 10:43:30;;;;;;;11.10;5.07;;;;;;;11.67;57.90;99494.56;4954592;28;20561;-86
2023/04/25 10:46:00;;;;;;;8.48;3.70;;;;;;;11.79;58.96;99500.50;4954945;28;20074;-87
2023/04/25 10:48:27;;;;;;;10.35;4.32;;;;;;;11.75;57.89;99507.94;4958673;28;20630;-86
2023/04/25 10:51:08;;;;;;;10.93;4.60;;;;;;;11.73;57.97;99491.31;4940962;28;20414;-86
2023/04/25 10:53:35;;;;;;;12.23;3.92;;;;;;;11.86;59.36;99501.56;4961008;28;20093;-86
2023/04/25 10:56:20;;;;;;;10.05;3.78;;;;;;;11.89;58.03;99501.28;4926020;28;20063;-87
2023/04/25 10:58:47;;;;;;;9.13;3.35;;;;;;;12.05;58.67;99498.75;4926077;28;20054;-85
2023/04/25 11:01:21;;;;;;;12.70;4.05;;;;;;;12.08;58.32;99495.78;4951904;28;20129;-88
2023/04/25 11:03:50;;;;;;;11.95;4.25;;;;;;;12.16;58.73;99498.53;4953893;28;20047;-87
2023/04/25 11:06:25;;;;;;;12.05;5.18;;;;;;;12.09;55.46;99501.97;4942472;28;20046;-87
2023/04/25 11:08:51;;;;;;;7.97;3.45;;;;;;;12.11;56.90;99502.63;4955832;28;20070;-87
2023/04/25 11:11:19;;;;;;;10.82;4.18;;;;;;;12.16;57.89;99509.19;4926452;28;20777;-86
2023/04/25 11:13:49;;;;;;;11.60;3.83;;;;;;;12.11;57.05;99506.16;4910161;28;20063;-86
2023/04/25 11:16:17;;;;;;;7.82;4.55;;;;;;;12.04;57.31;99502.44;4949722;28;20051;-86
2023/04/25 11:18:49;;;;;;;8.43;3.90;;;;;;;11.99;57.04;99502.06;4945585;28;20118;-86
2023/04/25 11:21:16;;;;;;;12.55;4.05;;;;;;;12.03;57.65;99506.06;4934683;28;20055;-86
2023/04/25 11:23:46;;;;;;;13.30;4.03;;;;;;;12.07;57.91;99502.13;4956167;28;20051;-87
2023/04/25 11:26:13;;;;;;;8.93;3.90;;;;;;;12.06;58.42;99503.13;4927387;28;20043;-86
2023/04/25 11:28:40;;;;;;;10.27;3.78;;;;;;;12.03;57.20;99508.72;4926899;28;20049;-86
2023/04/25 11:31:07;;;;;;;11.27;3.70;;;;;;;12.00;56.16;99521.50;4960796;28;20610;-85
2023/04/25 11:33:34;;;;;;;11.38;4.00;;;;;;;12.01;56.27;99510.72;4933503;28;20483;-85
2023/04/25 11:36:01;;;;;;;8.18;4.15;;;;;;;12.10;56.29;99516.94;4931852;28;20051;-85
2023/04/25 11:38:27;;;;;;;6.63;3.63;;;;;;;12.09;56.15;99518.78;4938467;28;20050;-85
2023/04/25 11:40:55;;;;;;;11.82;4.30;;;;;;;12.06;54.76;99516.41;4929126;28;20055;-86